sensor_id;sensor_type;location;lat;lon;timestamp;pressure;altitude;pressure_sealevel;temperature;humidity
82388;BME280;72027;47.420;9.310;2024-02-15T00:01:08;93878.31;;;4.49;78.15
82388;BME280;72027;47.420;9.310;2024-02-15T00:03:35;93881.47;;;4.48;78.54
82388;BME280;72027;47.420;9.310;2024-02-15T00:06:03;93888.94;;;4.47;78.76
82388;BME280;72027;47.420;9.310;2024-02-15T00:08:31;93890.56;;;4.45;78.81
82388;BME280;72027;47.420;9.310;2024-02-15T00:11:01;93888.28;;;4.39;79.00
82388;BME280;72027;47.420;9.310;2024-02-15T00:13:29;93896.53;;;4.36;78.91
82388;BME280;72027;47.420;9.310;2024-02-15T00:16:00;93902.06;;;4.32;79.40
82388;BME280;72027;47.420;9.310;2024-02-15T00:18:29;93905.22;;;4.31;79.83
82388;BME280;72027;47.420;9.310;2024-02-15T00:20:57;93891.16;;;4.29;79.73
82388;BME280;72027;47.420;9.310;2024-02-15T00:23:25;93896.66;;;4.29;80.22
82388;BME280;72027;47.420;9.310;2024-02-15T00:25:53;93890.81;;;4.27;79.84
82388;BME280;72027;47.420;9.310;2024-02-15T00:28:21;93893.94;;;4.25;80.35
82388;BME280;72027;47.420;9.310;2024-02-15T00:30:50;93894.00;;;4.22;79.83
82388;BME280;72027;47.420;9.310;2024-02-15T00:33:18;93897.94;;;4.21;80.05
82388;BME280;72027;47.420;9.310;2024-02-15T00:35:47;93894.41;;;4.20;80.93
82388;BME280;72027;47.420;9.310;2024-02-15T00:38:18;93899.13;;;4.19;80.06
82388;BME280;72027;47.420;9.310;2024-02-15T00:40:46;93905.03;;;4.18;80.60
82388;BME280;72027;47.420;9.310;2024-02-15T00:43:14;93904.22;;;4.17;80.48
82388;BME280;72027;47.420;9.310;2024-02-15T00:45:41;93904.28;;;4.14;80.71
82388;BME280;72027;47.420;9.310;2024-02-15T00:48:09;93902.38;;;4.11;80.13
82388;BME280;72027;47.420;9.310;2024-02-15T00:50:37;93902.00;;;4.09;80.26
82388;BME280;72027;47.420;9.310;2024-02-15T00:53:06;93898.91;;;4.07;80.21
82388;BME280;72027;47.420;9.310;2024-02-15T00:55:34;93893.06;;;4.05;80.55
82388;BME280;72027;47.420;9.310;2024-02-15T00:58:03;93895.00;;;4.04;81.07
82388;BME280;72027;47.420;9.310;2024-02-15T01:00:30;93893.06;;;4.05;80.63
82388;BME280;72027;47.420;9.310;2024-02-15T01:02:58;93886.78;;;4.04;80.34
82388;BME280;72027;47.420;9.310;2024-02-15T01:05:26;93889.06;;;4.09;79.68
82388;BME280;72027;47.420;9.310;2024-02-15T01:07:54;93892.97;;;4.12;79.68
82388;BME280;72027;47.420;9.310;2024-02-15T01:10:23;93891.34;;;4.14;80.15
82388;BME280;72027;47.420;9.310;2024-02-15T01:12:52;93889.03;;;4.13;79.96
82388;BME280;72027;47.420;9.310;2024-02-15T01:15:20;93885.16;;;4.10;79.98
82388;BME280;72027;47.420;9.310;2024-02-15T01:17:48;93873.81;;;4.08;79.82
82388;BME280;72027;47.420;9.310;2024-02-15T01:20:16;93882.88;;;4.05;79.88
82388;BME280;72027;47.420;9.310;2024-02-15T01:22:43;93893.91;;;4.02;80.23
82388;BME280;72027;47.420;9.310;2024-02-15T01:25:11;93897.88;;;3.97;80.20
82388;BME280;72027;47.420;9.310;2024-02-15T01:27:43;93899.47;;;3.94;80.52
82388;BME280;72027;47.420;9.310;2024-02-15T01:30:11;93908.16;;;3.89;80.40
82388;BME280;72027;47.420;9.310;2024-02-15T01:32:39;93913.31;;;3.84;79.66
82388;BME280;72027;47.420;9.310;2024-02-15T01:35:08;93906.31;;;3.79;80.21
82388;BME280;72027;47.420;9.310;2024-02-15T01:37:37;93900.06;;;3.79;80.33
82388;BME280;72027;47.420;9.310;2024-02-15T01:40:06;93891.09;;;3.74;80.84
82388;BME280;72027;47.420;9.310;2024-02-15T01:42:34;93893.13;;;3.70;81.16
82388;BME280;72027;47.420;9.310;2024-02-15T01:45:05;93888.81;;;3.69;80.55
82388;BME280;72027;47.420;9.310;2024-02-15T01:47:33;93886.50;;;3.68;80.76
82388;BME280;72027;47.420;9.310;2024-02-15T01:50:00;93884.16;;;3.66;81.07
82388;BME280;72027;47.420;9.310;2024-02-15T01:52:30;93888.91;;;3.62;80.21
82388;BME280;72027;47.420;9.310;2024-02-15T01:54:58;93885.78;;;3.60;80.63
82388;BME280;72027;47.420;9.310;2024-02-15T01:57:27;93875.66;;;3.57;81.26
82388;BME280;72027;47.420;9.310;2024-02-15T01:59:56;93873.75;;;3.54;81.42
82388;BME280;72027;47.420;9.310;2024-02-15T02:02:28;93874.19;;;3.49;80.85
82388;BME280;72027;47.420;9.310;2024-02-15T02:04:59;93872.69;;;3.44;81.53
82388;BME280;72027;47.420;9.310;2024-02-15T02:07:27;93876.59;;;3.43;81.78
82388;BME280;72027;47.420;9.310;2024-02-15T02:09:54;93879.38;;;3.40;80.88
82388;BME280;72027;47.420;9.310;2024-02-15T02:12:22;93870.00;;;3.37;81.82
82388;BME280;72027;47.420;9.310;2024-02-15T02:14:51;93874.34;;;3.35;81.40
82388;BME280;72027;47.420;9.310;2024-02-15T02:17:19;93875.53;;;3.34;81.84
82388;BME280;72027;47.420;9.310;2024-02-15T02:19:49;93872.84;;;3.30;80.92
82388;BME280;72027;47.420;9.310;2024-02-15T02:22:19;93871.31;;;3.25;81.48
82388;BME280;72027;47.420;9.310;2024-02-15T02:25:00;93869.81;;;3.21;82.11
82388;BME280;72027;47.420;9.310;2024-02-15T02:27:29;93863.94;;;3.19;82.44
82388;BME280;72027;47.420;9.310;2024-02-15T02:29:59;93864.78;;;3.16;82.31
82388;BME280;72027;47.420;9.310;2024-02-15T02:32:27;93858.53;;;3.15;82.22
82388;BME280;72027;47.420;9.310;2024-02-15T02:34:56;93855.84;;;3.12;82.39
82388;BME280;72027;47.420;9.310;2024-02-15T02:37:24;93857.44;;;3.09;83.01
82388;BME280;72027;47.420;9.310;2024-02-15T02:39:52;93864.06;;;3.08;83.19
82388;BME280;72027;47.420;9.310;2024-02-15T02:42:22;93856.66;;;3.08;83.21
82388;BME280;72027;47.420;9.310;2024-02-15T02:44:50;93866.81;;;3.08;83.22
82388;BME280;72027;47.420;9.310;2024-02-15T02:47:18;93858.59;;;3.08;83.15
82388;BME280;72027;47.420;9.310;2024-02-15T02:49:46;93862.53;;;3.07;83.06
82388;BME280;72027;47.420;9.310;2024-02-15T02:52:13;93860.97;;;3.06;82.80
82388;BME280;72027;47.420;9.310;2024-02-15T02:54:41;93859.41;;;3.05;82.81
82388;BME280;72027;47.420;9.310;2024-02-15T02:57:09;93844.63;;;2.99;82.63
82388;BME280;72027;47.420;9.310;2024-02-15T02:59:38;93850.91;;;2.96;83.25
82388;BME280;72027;47.420;9.310;2024-02-15T03:02:07;93848.63;;;2.91;82.81
82388;BME280;72027;47.420;9.310;2024-02-15T03:04:35;93844.72;;;2.88;83.39
82388;BME280;72027;47.420;9.310;2024-02-15T03:07:05;93842.38;;;2.86;83.23
82388;BME280;72027;47.420;9.310;2024-02-15T03:09:33;93839.28;;;2.84;82.68
82388;BME280;72027;47.420;9.310;2024-02-15T03:12:03;93846.69;;;2.88;82.65
82388;BME280;72027;47.420;9.310;2024-02-15T03:14:31;93840.81;;;2.89;83.30
82388;BME280;72027;47.420;9.310;2024-02-15T03:17:03;93843.91;;;2.91;83.41
82388;BME280;72027;47.420;9.310;2024-02-15T03:19:31;93838.84;;;2.90;83.25
82388;BME280;72027;47.420;9.310;2024-02-15T03:21:58;93838.50;;;2.88;83.16
82388;BME280;72027;47.420;9.310;2024-02-15T03:24:26;93835.38;;;2.85;83.14
82388;BME280;72027;47.420;9.310;2024-02-15T03:26:54;93843.19;;;2.83;82.83
82388;BME280;72027;47.420;9.310;2024-02-15T03:29:22;93835.00;;;2.83;82.90
82388;BME280;72027;47.420;9.310;2024-02-15T03:31:51;93838.50;;;2.84;82.48
82388;BME280;72027;47.420;9.310;2024-02-15T03:34:21;93827.97;;;2.82;83.57
82388;BME280;72027;47.420;9.310;2024-02-15T03:36:50;93828.41;;;2.77;83.33
82388;BME280;72027;47.420;9.310;2024-02-15T03:39:20;93823.34;;;2.76;83.63
82388;BME280;72027;47.420;9.310;2024-02-15T03:41:50;93832.75;;;2.75;83.99
82388;BME280;72027;47.420;9.310;2024-02-15T03:44:20;93840.94;;;2.75;83.19
82388;BME280;72027;47.420;9.310;2024-02-15T03:46:47;93827.28;;;2.75;83.48
82388;BME280;72027;47.420;9.310;2024-02-15T03:49:17;93830.03;;;2.71;82.96
82388;BME280;72027;47.420;9.310;2024-02-15T03:51:47;93826.59;;;2.63;82.99
82388;BME280;72027;47.420;9.310;2024-02-15T03:54:15;93821.19;;;2.56;83.09
82388;BME280;72027;47.420;9.310;2024-02-15T03:56:47;93819.28;;;2.53;83.40
82388;BME280;72027;47.420;9.310;2024-02-15T03:59:19;93817.34;;;2.50;83.43
82388;BME280;72027;47.420;9.310;2024-02-15T04:01:53;93817.75;;;2.49;84.24
82388;BME280;72027;47.420;9.310;2024-02-15T04:04:21;93822.81;;;2.47;84.33
82388;BME280;72027;47.420;9.310;2024-02-15T04:06:51;93818.56;;;2.46;84.49
82388;BME280;72027;47.420;9.310;2024-02-15T04:09:19;93818.16;;;2.43;84.39
82388;BME280;72027;47.420;9.310;2024-02-15T04:11:47;93815.81;;;2.42;83.98
82388;BME280;72027;47.420;9.310;2024-02-15T04:14:19;93820.19;;;2.39;83.60
82388;BME280;72027;47.420;9.310;2024-02-15T04:16:47;93819.78;;;2.37;83.78
82388;BME280;72027;47.420;9.310;2024-02-15T04:19:15;93820.97;;;2.36;84.96
82388;BME280;72027;47.420;9.310;2024-02-15T04:21:46;93824.91;;;2.32;84.05
82388;BME280;72027;47.420;9.310;2024-02-15T04:24:15;93823.75;;;2.29;84.92
82388;BME280;72027;47.420;9.310;2024-02-15T04:26:43;93817.50;;;2.29;85.21
82388;BME280;72027;47.420;9.310;2024-02-15T04:29:14;93821.44;;;2.28;85.76
82388;BME280;72027;47.420;9.310;2024-02-15T04:31:41;93823.38;;;2.27;84.85
82388;BME280;72027;47.420;9.310;2024-02-15T04:34:09;93821.03;;;2.26;84.48
82388;BME280;72027;47.420;9.310;2024-02-15T04:36:37;93822.22;;;2.25;84.90
82388;BME280;72027;47.420;9.310;2024-02-15T04:39:05;93819.88;;;2.23;84.72
82388;BME280;72027;47.420;9.310;2024-02-15T04:41:34;93824.59;;;2.23;84.75
82388;BME280;72027;47.420;9.310;2024-02-15T04:44:02;93821.47;;;2.24;85.39
82388;BME280;72027;47.420;9.310;2024-02-15T04:46:30;93823.78;;;2.26;84.88
82388;BME280;72027;47.420;9.310;2024-02-15T04:48:58;93814.41;;;2.27;84.46
82388;BME280;72027;47.420;9.310;2024-02-15T04:51:26;93809.72;;;2.27;85.53
82388;BME280;72027;47.420;9.310;2024-02-15T04:53:54;93815.56;;;2.26;85.31
82388;BME280;72027;47.420;9.310;2024-02-15T04:56:24;93811.69;;;2.27;84.76
82388;BME280;72027;47.420;9.310;2024-02-15T04:58:53;93811.31;;;2.25;84.21
82388;BME280;72027;47.420;9.310;2024-02-15T05:01:20;93816.38;;;2.23;84.16
82388;BME280;72027;47.420;9.310;2024-02-15T05:03:49;93813.66;;;2.23;84.47
82388;BME280;72027;47.420;9.310;2024-02-15T05:06:16;93816.44;;;2.19;84.71
82388;BME280;72027;47.420;9.310;2024-02-15T05:08:45;93814.13;;;2.14;84.71
82388;BME280;72027;47.420;9.310;2024-02-15T05:11:13;93813.34;;;2.10;84.59
82388;BME280;72027;47.420;9.310;2024-02-15T05:13:44;93811.44;;;2.07;85.26
82388;BME280;72027;47.420;9.310;2024-02-15T05:16:14;93813.00;;;2.04;84.86
82388;BME280;72027;47.420;9.310;2024-02-15T05:18:42;93817.31;;;2.02;85.13
82388;BME280;72027;47.420;9.310;2024-02-15T05:21:11;93817.75;;;1.96;85.11
82388;BME280;72027;47.420;9.310;2024-02-15T05:23:39;93811.13;;;1.94;85.58
82388;BME280;72027;47.420;9.310;2024-02-15T05:26:09;93808.44;;;1.90;85.16
82388;BME280;72027;47.420;9.310;2024-02-15T05:28:36;93805.72;;;1.87;85.68
82388;BME280;72027;47.420;9.310;2024-02-15T05:31:15;93808.88;;;1.82;85.49
82388;BME280;72027;47.420;9.310;2024-02-15T05:33:44;93805.75;;;1.80;86.16
82388;BME280;72027;47.420;9.310;2024-02-15T05:36:14;93811.63;;;1.78;85.84
82388;BME280;72027;47.420;9.310;2024-02-15T05:38:42;93804.22;;;1.79;86.47
82388;BME280;72027;47.420;9.310;2024-02-15T05:41:12;93799.50;;;1.83;86.22
82388;BME280;72027;47.420;9.310;2024-02-15T05:43:40;93802.59;;;1.88;86.15
82388;BME280;72027;47.420;9.310;2024-02-15T05:46:09;93806.06;;;1.92;86.33
82388;BME280;72027;47.420;9.310;2024-02-15T05:48:38;93798.25;;;1.94;85.51
82388;BME280;72027;47.420;9.310;2024-02-15T05:51:07;93795.88;;;1.96;85.73
82388;BME280;72027;47.420;9.310;2024-02-15T05:53:35;93798.63;;;2.00;85.03
82388;BME280;72027;47.420;9.310;2024-02-15T05:56:04;93802.50;;;2.03;85.59
82388;BME280;72027;47.420;9.310;2024-02-15T05:58:33;93809.13;;;2.02;84.52
82388;BME280;72027;47.420;9.310;2024-02-15T06:01:03;93803.31;;;2.00;84.96
82388;BME280;72027;47.420;9.310;2024-02-15T06:03:34;93795.88;;;1.96;84.84
82388;BME280;72027;47.420;9.310;2024-02-15T06:06:05;93796.25;;;1.98;85.06
82388;BME280;72027;47.420;9.310;2024-02-15T06:08:34;93796.25;;;1.98;85.87
82388;BME280;72027;47.420;9.310;2024-02-15T06:11:03;93793.16;;;1.96;86.12
82388;BME280;72027;47.420;9.310;2024-02-15T06:13:31;93799.41;;;1.93;86.11
82388;BME280;72027;47.420;9.310;2024-02-15T06:16:00;93790.84;;;1.91;86.45
82388;BME280;72027;47.420;9.310;2024-02-15T06:18:28;93795.91;;;1.93;85.74
82388;BME280;72027;47.420;9.310;2024-02-15T06:20:59;93790.47;;;1.93;86.16
82388;BME280;72027;47.420;9.310;2024-02-15T06:23:30;93805.31;;;1.92;85.81
82388;BME280;72027;47.420;9.310;2024-02-15T06:26:00;93797.50;;;1.90;84.95
82388;BME280;72027;47.420;9.310;2024-02-15T06:28:29;93797.53;;;1.87;85.52
82388;BME280;72027;47.420;9.310;2024-02-15T06:31:15;93799.13;;;1.84;85.53
82388;BME280;72027;47.420;9.310;2024-02-15T06:34:00;93799.13;;;1.81;85.59
82388;BME280;72027;47.420;9.310;2024-02-15T06:36:47;93795.63;;;1.80;85.17
82388;BME280;72027;47.420;9.310;2024-02-15T06:39:30;93795.22;;;1.78;85.46
82388;BME280;72027;47.420;9.310;2024-02-15T06:42:09;93804.22;;;1.79;85.16
82388;BME280;72027;47.420;9.310;2024-02-15T06:44:39;93806.19;;;1.74;85.51
82388;BME280;72027;47.420;9.310;2024-02-15T06:47:07;93801.13;;;1.73;84.87
82388;BME280;72027;47.420;9.310;2024-02-15T06:49:37;93806.97;;;1.75;84.98
82388;BME280;72027;47.420;9.310;2024-02-15T06:52:07;93801.50;;;1.79;84.78
82388;BME280;72027;47.420;9.310;2024-02-15T06:54:37;93804.97;;;1.83;84.64
82388;BME280;72027;47.420;9.310;2024-02-15T06:57:05;93799.84;;;1.88;84.33
82388;BME280;72027;47.420;9.310;2024-02-15T06:59:33;93795.91;;;1.93;84.00
82388;BME280;72027;47.420;9.310;2024-02-15T07:02:02;93800.56;;;2.00;84.21
82388;BME280;72027;47.420;9.310;2024-02-15T07:04:32;93805.97;;;2.07;84.35
82388;BME280;72027;47.420;9.310;2024-02-15T07:06:59;93795.34;;;2.19;84.10
82388;BME280;72027;47.420;9.310;2024-02-15T07:09:28;93794.72;;;2.46;83.83
82388;BME280;72027;47.420;9.310;2024-02-15T07:11:58;93797.78;;;2.90;82.33
82388;BME280;72027;47.420;9.310;2024-02-15T07:14:25;93801.84;;;3.46;80.92
82388;BME280;72027;47.420;9.310;2024-02-15T07:16:57;93791.22;;;4.06;79.64
82388;BME280;72027;47.420;9.310;2024-02-15T07:19:25;93790.34;;;4.60;77.41
82388;BME280;72027;47.420;9.310;2024-02-15T07:21:54;93791.13;;;5.04;75.65
82388;BME280;72027;47.420;9.310;2024-02-15T07:24:22;93790.38;;;5.43;73.96
82388;BME280;72027;47.420;9.310;2024-02-15T07:26:54;93787.34;;;5.74;72.71
82388;BME280;72027;47.420;9.310;2024-02-15T07:29:23;93785.13;;;6.05;70.69
82388;BME280;72027;47.420;9.310;2024-02-15T07:31:52;93786.44;;;6.50;69.47
82388;BME280;72027;47.420;9.310;2024-02-15T07:34:21;93781.06;;;6.92;67.93
82388;BME280;72027;47.420;9.310;2024-02-15T07:36:50;93778.03;;;7.32;66.38
82388;BME280;72027;47.420;9.310;2024-02-15T07:39:18;93775.47;;;7.79;66.64
82388;BME280;72027;47.420;9.310;2024-02-15T07:41:50;93778.84;;;8.25;63.61
82388;BME280;72027;47.420;9.310;2024-02-15T07:44:18;93775.16;;;8.67;62.98
82388;BME280;72027;47.420;9.310;2024-02-15T07:46:47;93777.13;;;9.14;61.42
82388;BME280;72027;47.420;9.310;2024-02-15T07:49:17;93780.06;;;9.54;59.59
82388;BME280;72027;47.420;9.310;2024-02-15T07:51:45;93779.00;;;9.83;58.04
82388;BME280;72027;47.420;9.310;2024-02-15T07:54:18;93775.84;;;9.93;56.59
82388;BME280;72027;47.420;9.310;2024-02-15T07:56:47;93772.59;;;10.17;55.67
82388;BME280;72027;47.420;9.310;2024-02-15T07:59:15;93779.66;;;10.49;56.79
82388;BME280;72027;47.420;9.310;2024-02-15T08:01:44;93775.47;;;10.85;56.68
82388;BME280;72027;47.420;9.310;2024-02-15T08:04:15;93780.41;;;11.09;56.21
82388;BME280;72027;47.420;9.310;2024-02-15T08:06:44;93757.31;;;11.30;54.43
82388;BME280;72027;47.420;9.310;2024-02-15T08:09:12;93762.06;;;11.48;54.12
82388;BME280;72027;47.420;9.310;2024-02-15T08:11:40;93758.22;;;11.64;54.22
82388;BME280;72027;47.420;9.310;2024-02-15T08:14:08;93757.91;;;11.71;53.27
82388;BME280;72027;47.420;9.310;2024-02-15T08:16:39;93742.16;;;11.77;51.72
82388;BME280;72027;47.420;9.310;2024-02-15T08:19:08;93739.53;;;11.92;52.15
82388;BME280;72027;47.420;9.310;2024-02-15T08:21:39;93737.97;;;12.00;52.15
82388;BME280;72027;47.420;9.310;2024-02-15T08:24:10;93732.56;;;12.06;51.13
82388;BME280;72027;47.420;9.310;2024-02-15T08:26:39;93724.03;;;12.09;51.25
82388;BME280;72027;47.420;9.310;2024-02-15T08:29:08;93731.59;;;12.18;50.60
82388;BME280;72027;47.420;9.310;2024-02-15T08:31:36;93722.44;;;12.27;50.87
82388;BME280;72027;47.420;9.310;2024-02-15T08:34:04;93717.97;;;12.29;50.71
82388;BME280;72027;47.420;9.310;2024-02-15T08:36:33;93717.19;;;12.29;49.61
82388;BME280;72027;47.420;9.310;2024-02-15T08:39:02;93708.81;;;12.38;50.04
82388;BME280;72027;47.420;9.310;2024-02-15T08:41:31;93711.69;;;12.53;50.44
82388;BME280;72027;47.420;9.310;2024-02-15T08:43:59;93706.41;;;12.79;50.05
82388;BME280;72027;47.420;9.310;2024-02-15T08:46:28;93703.16;;;13.05;50.13
82388;BME280;72027;47.420;9.310;2024-02-15T08:48:55;93696.97;;;13.25;49.23
82388;BME280;72027;47.420;9.310;2024-02-15T08:51:23;93691.56;;;13.30;48.72
82388;BME280;72027;47.420;9.310;2024-02-15T08:53:51;93681.38;;;13.42;48.23
82388;BME280;72027;47.420;9.310;2024-02-15T08:56:20;93681.50;;;13.62;48.06
82388;BME280;72027;47.420;9.310;2024-02-15T08:58:49;93684.78;;;13.76;47.84
82388;BME280;72027;47.420;9.310;2024-02-15T09:01:17;93678.72;;;13.92;48.11
82388;BME280;72027;47.420;9.310;2024-02-15T09:03:45;93668.13;;;14.11;47.58
82388;BME280;72027;47.420;9.310;2024-02-15T09:06:13;93672.63;;;14.23;47.13
82388;BME280;72027;47.420;9.310;2024-02-15T09:08:41;93665.09;;;14.29;47.04
82388;BME280;72027;47.420;9.310;2024-02-15T09:11:09;93664.22;;;14.38;44.28
82388;BME280;72027;47.420;9.310;2024-02-15T09:13:40;93662.53;;;14.61;46.49
82388;BME280;72027;47.420;9.310;2024-02-15T09:16:08;93661.31;;;14.83;45.52
82388;BME280;72027;47.420;9.310;2024-02-15T09:18:38;93663.75;;;14.95;45.56
82388;BME280;72027;47.420;9.310;2024-02-15T09:21:11;93655.91;;;15.20;44.33
82388;BME280;72027;47.420;9.310;2024-02-15T09:23:39;93659.31;;;15.30;43.91
82388;BME280;72027;47.420;9.310;2024-02-15T09:26:07;93660.31;;;15.27;43.30
82388;BME280;72027;47.420;9.310;2024-02-15T09:28:36;93650.25;;;15.35;43.95
82388;BME280;72027;47.420;9.310;2024-02-15T09:31:05;93650.06;;;15.44;43.32
82388;BME280;72027;47.420;9.310;2024-02-15T09:33:33;93650.78;;;15.65;43.48
82388;BME280;72027;47.420;9.310;2024-02-15T09:36:01;93646.41;;;15.84;43.67
82388;BME280;72027;47.420;9.310;2024-02-15T09:38:29;93645.34;;;16.08;43.42
82388;BME280;72027;47.420;9.310;2024-02-15T09:40:57;93639.22;;;16.36;43.29
82388;BME280;72027;47.420;9.310;2024-02-15T09:43:25;93641.41;;;16.63;41.92
82388;BME280;72027;47.420;9.310;2024-02-15T09:45:53;93636.97;;;16.94;41.57
82388;BME280;72027;47.420;9.310;2024-02-15T09:48:24;93633.03;;;17.23;41.25
82388;BME280;72027;47.420;9.310;2024-02-15T09:50:53;93634.84;;;17.37;40.40
82388;BME280;72027;47.420;9.310;2024-02-15T09:53:22;93619.63;;;17.61;41.54
82388;BME280;72027;47.420;9.310;2024-02-15T09:55:53;93626.03;;;17.84;41.08
82388;BME280;72027;47.420;9.310;2024-02-15T09:58:21;93618.16;;;17.99;40.00
82388;BME280;72027;47.420;9.310;2024-02-15T10:00:50;93621.47;;;18.15;40.13
82388;BME280;72027;47.420;9.310;2024-02-15T10:03:19;93623.78;;;18.22;39.51
82388;BME280;72027;47.420;9.310;2024-02-15T10:05:49;93619.41;;;18.21;40.17
82388;BME280;72027;47.420;9.310;2024-02-15T10:08:18;93617.09;;;18.42;40.92
82388;BME280;72027;47.420;9.310;2024-02-15T10:10:48;93618.06;;;18.61;40.30
82388;BME280;72027;47.420;9.310;2024-02-15T10:13:23;93612.47;;;18.61;39.25
82388;BME280;72027;47.420;9.310;2024-02-15T10:15:51;93612.25;;;18.54;41.35
82388;BME280;72027;47.420;9.310;2024-02-15T10:18:20;93608.63;;;18.59;40.50
82388;BME280;72027;47.420;9.310;2024-02-15T10:20:57;93603.53;;;18.63;40.19
82388;BME280;72027;47.420;9.310;2024-02-15T10:23:25;93596.19;;;18.54;40.77
82388;BME280;72027;47.420;9.310;2024-02-15T10:25:53;93600.25;;;18.53;41.17
82388;BME280;72027;47.420;9.310;2024-02-15T10:28:23;93600.00;;;18.40;41.11
82388;BME280;72027;47.420;9.310;2024-02-15T10:30:51;93588.84;;;18.17;41.13
82388;BME280;72027;47.420;9.310;2024-02-15T10:33:25;93593.44;;;17.92;41.53
82388;BME280;72027;47.420;9.310;2024-02-15T10:36:06;93585.75;;;17.59;42.26
82388;BME280;72027;47.420;9.310;2024-02-15T10:38:35;93587.25;;;17.32;42.64
82388;BME280;72027;47.420;9.310;2024-02-15T10:41:05;93587.69;;;17.08;43.54
82388;BME280;72027;47.420;9.310;2024-02-15T10:43:34;93575.97;;;16.98;43.73
82388;BME280;72027;47.420;9.310;2024-02-15T10:46:04;93576.44;;;16.91;44.24
82388;BME280;72027;47.420;9.310;2024-02-15T10:48:34;93576.75;;;17.10;44.93
82388;BME280;72027;47.420;9.310;2024-02-15T10:51:03;93578.09;;;17.37;44.71
82388;BME280;72027;47.420;9.310;2024-02-15T10:53:39;93574.56;;;17.76;43.91
82388;BME280;72027;47.420;9.310;2024-02-15T10:56:15;93570.75;;;18.07;43.10
82388;BME280;72027;47.420;9.310;2024-02-15T10:58:48;93568.66;;;18.47;42.33
82388;BME280;72027;47.420;9.310;2024-02-15T11:01:17;93563.22;;;18.77;41.36
82388;BME280;72027;47.420;9.310;2024-02-15T11:03:54;93553.94;;;18.99;40.95
82388;BME280;72027;47.420;9.310;2024-02-15T11:06:27;93562.50;;;19.24;40.50
82388;BME280;72027;47.420;9.310;2024-02-15T11:08:57;93558.66;;;19.27;40.18
82388;BME280;72027;47.420;9.310;2024-02-15T11:11:26;93557.16;;;19.20;40.12
82388;BME280;72027;47.420;9.310;2024-02-15T11:14:25;93557.41;;;19.17;39.86
82388;BME280;72027;47.420;9.310;2024-02-15T11:16:53;93551.09;;;19.10;40.35
82388;BME280;72027;47.420;9.310;2024-02-15T11:19:42;93544.38;;;19.19;40.08
82388;BME280;72027;47.420;9.310;2024-02-15T11:22:14;93548.41;;;19.29;40.20
82388;BME280;72027;47.420;9.310;2024-02-15T11:24:47;93545.81;;;19.37;39.71
82388;BME280;72027;47.420;9.310;2024-02-15T11:27:25;93554.31;;;19.26;39.39
82388;BME280;72027;47.420;9.310;2024-02-15T11:29:55;93549.38;;;18.90;39.61
82388;BME280;72027;47.420;9.310;2024-02-15T11:32:39;93558.88;;;18.70;40.56
82388;BME280;72027;47.420;9.310;2024-02-15T11:35:07;93549.28;;;18.49;40.07
82388;BME280;72027;47.420;9.310;2024-02-15T11:37:52;93543.91;;;18.45;41.82
82388;BME280;72027;47.420;9.310;2024-02-15T11:40:23;93548.75;;;18.45;41.66
82388;BME280;72027;47.420;9.310;2024-02-15T11:42:52;93556.34;;;18.61;40.79
82388;BME280;72027;47.420;9.310;2024-02-15T11:45:20;93543.91;;;18.57;40.56
82388;BME280;72027;47.420;9.310;2024-02-15T11:47:49;93544.66;;;18.57;41.20
82388;BME280;72027;47.420;9.310;2024-02-15T11:50:18;93525.50;;;18.67;41.90
82388;BME280;72027;47.420;9.310;2024-02-15T11:52:48;93535.41;;;18.74;42.12
82388;BME280;72027;47.420;9.310;2024-02-15T11:55:18;93532.09;;;18.81;41.28
82388;BME280;72027;47.420;9.310;2024-02-15T11:57:58;93525.44;;;18.84;41.79
82388;BME280;72027;47.420;9.310;2024-02-15T12:00:32;93536.16;;;18.74;41.18
82388;BME280;72027;47.420;9.310;2024-02-15T12:03:18;93528.06;;;18.65;41.39
82388;BME280;72027;47.420;9.310;2024-02-15T12:06:06;93534.22;;;18.52;41.63
82388;BME280;72027;47.420;9.310;2024-02-15T12:08:54;93532.47;;;18.38;41.51
82388;BME280;72027;47.420;9.310;2024-02-15T12:11:40;93517.00;;;18.14;41.82
82388;BME280;72027;47.420;9.310;2024-02-15T12:14:27;93513.44;;;17.91;41.40
82388;BME280;72027;47.420;9.310;2024-02-15T12:17:13;93514.97;;;17.81;43.10
82388;BME280;72027;47.420;9.310;2024-02-15T12:20:00;93510.66;;;17.80;43.02
82388;BME280;72027;47.420;9.310;2024-02-15T12:22:35;93508.06;;;17.76;43.07
82388;BME280;72027;47.420;9.310;2024-02-15T12:25:07;93507.31;;;17.76;43.08
82388;BME280;72027;47.420;9.310;2024-02-15T12:27:39;93512.44;;;17.89;43.15
82388;BME280;72027;47.420;9.310;2024-02-15T12:30:13;93500.94;;;18.09;42.71
82388;BME280;72027;47.420;9.310;2024-02-15T12:32:42;93503.44;;;18.18;42.98
82388;BME280;72027;47.420;9.310;2024-02-15T12:35:11;93504.72;;;18.23;41.99
82388;BME280;72027;47.420;9.310;2024-02-15T12:37:42;93504.97;;;18.31;42.68
82388;BME280;72027;47.420;9.310;2024-02-15T12:40:10;93491.19;;;18.33;43.35
82388;BME280;72027;47.420;9.310;2024-02-15T12:42:42;93503.97;;;18.22;42.75
82388;BME280;72027;47.420;9.310;2024-02-15T12:45:20;93494.03;;;18.16;43.66
82388;BME280;72027;47.420;9.310;2024-02-15T12:47:50;93500.13;;;18.25;45.02
82388;BME280;72027;47.420;9.310;2024-02-15T12:50:19;93500.69;;;18.07;44.18
82388;BME280;72027;47.420;9.310;2024-02-15T12:52:49;93490.25;;;17.74;45.90
82388;BME280;72027;47.420;9.310;2024-02-15T12:55:18;93491.53;;;17.67;45.67
82388;BME280;72027;47.420;9.310;2024-02-15T12:57:49;93485.19;;;17.38;46.68
82388;BME280;72027;47.420;9.310;2024-02-15T13:00:20;93485.66;;;17.09;47.22
82388;BME280;72027;47.420;9.310;2024-02-15T13:02:49;93489.19;;;16.81;47.71
82388;BME280;72027;47.420;9.310;2024-02-15T13:05:19;93478.34;;;16.46;48.79
82388;BME280;72027;47.420;9.310;2024-02-15T13:07:49;93484.47;;;16.44;49.54
82388;BME280;72027;47.420;9.310;2024-02-15T13:10:17;93475.63;;;16.57;49.27
82388;BME280;72027;47.420;9.310;2024-02-15T13:12:45;93468.25;;;16.65;47.61
82388;BME280;72027;47.420;9.310;2024-02-15T13:15:14;93470.53;;;16.67;47.27
82388;BME280;72027;47.420;9.310;2024-02-15T13:17:45;93459.13;;;16.76;47.89
82388;BME280;72027;47.420;9.310;2024-02-15T13:20:15;93459.13;;;16.70;47.71
82388;BME280;72027;47.420;9.310;2024-02-15T13:22:47;93450.44;;;16.51;48.36